createdAt,value
2022-10-22T00:01:52.469Z,13.92
2022-10-22T00:06:53.728Z,13.97
2022-10-22T00:12:00.155Z,14.14
2022-10-22T00:17:01.402Z,14.08
2022-10-22T00:22:05.658Z,14.09
2022-10-22T00:27:06.878Z,14.08
2022-10-22T00:32:08.134Z,14.00
2022-10-22T00:37:09.854Z,13.58
2022-10-22T00:42:11.080Z,13.32
2022-10-22T00:47:12.336Z,12.92
2022-10-22T00:52:13.575Z,13.54
2022-10-22T00:57:14.859Z,13.59
2022-10-22T01:02:16.067Z,13.91
2022-10-22T01:07:17.298Z,13.89
2022-10-22T01:12:18.546Z,14.06
2022-10-22T01:22:20.993Z,13.94
2022-10-22T01:27:22.280Z,13.65
2022-10-22T01:32:23.605Z,13.77
2022-10-22T01:37:24.838Z,13.92
2022-10-22T01:42:26.320Z,13.67
2022-10-22T01:47:27.574Z,13.26
2022-10-22T01:52:28.788Z,13.43
2022-10-22T01:57:30.698Z,13.69
2022-10-22T02:02:31.938Z,13.82
2022-10-22T02:07:33.180Z,13.83
2022-10-22T02:12:34.656Z,13.77
2022-10-22T02:17:35.965Z,13.74
2022-10-22T02:22:37.735Z,13.84
2022-10-22T02:27:39.195Z,13.91
2022-10-22T02:32:40.684Z,13.91
2022-10-22T02:37:42.170Z,13.70
2022-10-22T02:42:43.387Z,13.72
2022-10-22T02:47:44.619Z,13.41
2022-10-22T02:52:45.854Z,13.56
2022-10-22T02:57:47.056Z,13.47
2022-10-22T03:02:48.317Z,13.63
2022-10-22T03:07:49.546Z,13.49
2022-10-22T03:12:50.790Z,13.48
2022-10-22T03:17:52.008Z,13.33
2022-10-22T03:22:53.248Z,13.16
2022-10-22T03:27:54.482Z,13.20
2022-10-22T03:32:55.694Z,13.44
2022-10-22T03:37:56.927Z,13.52
2022-10-22T03:42:58.172Z,13.85
2022-10-22T03:47:59.562Z,13.71
2022-10-22T03:53:00.822Z,13.54
2022-10-22T03:58:02.638Z,13.81
2022-10-22T04:03:03.852Z,13.91
2022-10-22T04:08:05.103Z,14.03
2022-10-22T04:13:06.320Z,14.04
2022-10-22T04:18:07.538Z,14.05
2022-10-22T04:23:08.802Z,14.14
2022-10-22T04:28:10.015Z,13.65
2022-10-22T04:33:11.220Z,13.84
2022-10-22T04:38:12.494Z,13.95
2022-10-22T04:43:13.715Z,13.98
2022-10-22T04:48:14.940Z,14.08
2022-10-22T04:53:16.148Z,13.90
2022-10-22T04:58:17.423Z,13.99
2022-10-22T05:03:18.727Z,14.16
2022-10-22T05:08:20.158Z,13.91
2022-10-22T05:13:21.410Z,13.86
2022-10-22T05:18:22.736Z,13.86
2022-10-22T05:23:24.007Z,13.85
2022-10-22T05:28:25.231Z,13.93
2022-10-22T05:33:26.487Z,13.68
2022-10-22T05:38:27.759Z,13.84
2022-10-22T05:43:29.068Z,13.92
2022-10-22T05:48:30.382Z,14.04
2022-10-22T05:53:31.683Z,14.05
2022-10-22T05:58:32.919Z,14.23
2022-10-22T06:03:34.179Z,14.32
2022-10-22T06:08:35.507Z,14.17
2022-10-22T06:13:36.763Z,13.82
2022-10-22T06:18:38.007Z,13.89
2022-10-22T06:23:39.815Z,14.18
2022-10-22T06:28:41.085Z,14.16
2022-10-22T06:33:43.372Z,14.23
2022-10-22T06:38:44.617Z,14.27
2022-10-22T06:43:46.906Z,14.37
2022-10-22T06:48:48.157Z,14.40
2022-10-22T06:53:49.400Z,14.39
2022-10-22T06:58:50.608Z,14.37
2022-10-22T07:03:51.948Z,14.33
2022-10-22T07:08:53.241Z,14.53
2022-10-22T07:13:54.678Z,14.52
2022-10-22T07:18:56.055Z,14.14
2022-10-22T07:23:57.300Z,13.93
2022-10-22T07:28:58.639Z,13.94
2022-10-22T07:33:59.889Z,14.01
2022-10-22T07:39:01.122Z,14.41
2022-10-22T07:44:02.518Z,14.25
2022-10-22T07:49:03.765Z,14.39
2022-10-22T07:54:05.079Z,14.19
2022-10-22T07:59:06.306Z,14.23
2022-10-22T08:04:11.813Z,14.24
2022-10-22T08:09:13.156Z,14.30
2022-10-22T08:14:14.390Z,14.45
2022-10-22T08:19:18.828Z,14.34
2022-10-22T08:29:49.149Z,14.53
2022-10-22T08:34:50.411Z,14.67
2022-10-22T08:39:51.736Z,14.62
2022-10-22T08:44:52.953Z,14.63
2022-10-22T08:49:54.268Z,14.76
2022-10-22T08:54:55.551Z,15.03
2022-10-22T08:59:56.752Z,15.13
2022-10-22T09:04:57.991Z,15.24
2022-10-22T09:09:59.238Z,15.08
2022-10-22T09:15:00.653Z,14.87
2022-10-22T09:20:01.880Z,14.96
2022-10-22T09:25:04.328Z,15.09
2022-10-22T09:30:05.693Z,15.23
2022-10-22T09:35:06.945Z,15.07
2022-10-22T09:40:09.365Z,15.24
2022-10-22T09:45:10.590Z,15.32
2022-10-22T09:50:11.803Z,15.27
2022-10-22T09:55:13.010Z,16.09
2022-10-22T10:00:14.245Z,15.94
2022-10-22T10:05:15.469Z,16.39
2022-10-22T10:10:16.713Z,16.39
2022-10-22T10:15:17.922Z,16.93
2022-10-22T10:20:19.125Z,17.00
2022-10-22T10:25:20.928Z,16.96
2022-10-22T10:30:23.958Z,16.60
2022-10-22T10:35:25.337Z,16.43
2022-10-22T10:40:26.538Z,16.81
2022-10-22T10:45:27.747Z,17.04
2022-10-22T10:50:28.979Z,17.64
2022-10-22T10:55:30.256Z,18.00
2022-10-22T11:00:31.596Z,18.32
2022-10-22T11:05:32.833Z,18.33
2022-10-22T11:10:34.059Z,18.47
2022-10-22T11:15:35.339Z,18.59
2022-10-22T11:20:36.550Z,18.51
2022-10-22T11:25:38.647Z,18.75
2022-10-22T11:30:39.860Z,18.94
2022-10-22T11:35:41.082Z,19.33
2022-10-22T11:40:42.342Z,19.61
2022-10-22T11:45:43.643Z,19.35
2022-10-22T11:50:46.562Z,19.54
2022-10-22T11:55:55.506Z,19.00
2022-10-22T12:00:56.827Z,19.32
2022-10-22T12:05:58.138Z,19.65
2022-10-22T12:10:59.484Z,20.07
2022-10-22T12:16:00.706Z,20.16
2022-10-22T12:21:01.919Z,19.71
2022-10-22T12:26:03.113Z,19.64
2022-10-22T12:31:04.487Z,19.25
2022-10-22T12:36:05.961Z,18.43
2022-10-22T12:41:07.165Z,19.24
2022-10-22T12:46:08.406Z,20.24
2022-10-22T12:51:09.629Z,20.40
2022-10-22T12:56:10.927Z,20.36
2022-10-22T13:01:12.310Z,19.99
2022-10-22T13:06:13.587Z,19.39
2022-10-22T13:11:14.806Z,19.02
2022-10-22T13:16:16.038Z,20.50
2022-10-22T13:21:17.240Z,20.07
2022-10-22T13:26:18.435Z,20.04
2022-10-22T13:31:19.707Z,20.15
2022-10-22T13:36:20.931Z,21.27
2022-10-22T13:41:22.219Z,20.16
2022-10-22T13:46:23.537Z,21.32
2022-10-22T13:51:24.799Z,21.19
2022-10-22T13:56:25.994Z,20.45
2022-10-22T14:01:27.264Z,21.06
2022-10-22T14:06:28.854Z,21.71
2022-10-22T14:11:32.533Z,21.89
2022-10-22T14:16:34.350Z,20.97
2022-10-22T14:21:35.558Z,21.22
2022-10-22T14:26:36.754Z,22.00
2022-10-22T14:31:38.071Z,22.78
2022-10-22T14:36:39.342Z,23.11
2022-10-22T14:41:40.915Z,22.28
2022-10-22T14:46:43.942Z,22.49
2022-10-22T14:51:45.157Z,22.04
2022-10-22T14:56:49.402Z,21.51
2022-10-22T15:01:50.698Z,21.13
2022-10-22T15:06:56.737Z,20.79
2022-10-22T15:11:58.087Z,20.29
2022-10-22T15:16:59.319Z,19.99
2022-10-22T15:22:00.570Z,19.70
2022-10-22T15:27:03.318Z,19.84
2022-10-22T15:32:04.665Z,19.35
2022-10-22T15:37:05.879Z,19.22
2022-10-22T15:42:07.087Z,19.12
2022-10-22T15:47:08.340Z,19.01
2022-10-22T15:52:09.885Z,19.37
2022-10-22T15:57:11.243Z,19.52
2022-10-22T16:02:12.833Z,18.89
2022-10-22T16:07:14.059Z,18.65
2022-10-22T16:12:17.239Z,18.36
2022-10-22T16:17:18.682Z,18.20
2022-10-22T16:22:19.919Z,17.94
2022-10-22T16:27:21.163Z,17.83
2022-10-22T16:32:23.078Z,17.86
2022-10-22T16:37:24.681Z,17.71
2022-10-22T16:42:25.907Z,17.55
2022-10-22T16:47:27.184Z,17.32
2022-10-22T16:52:28.441Z,17.27
2022-10-22T16:57:29.841Z,16.97
2022-10-22T17:02:31.066Z,16.82
2022-10-22T17:07:32.305Z,16.58
2022-10-22T17:12:35.565Z,16.48
2022-10-22T17:17:36.900Z,16.05
2022-10-22T17:22:38.362Z,16.09
2022-10-22T17:27:42.749Z,15.83
2022-10-22T17:32:44.324Z,15.72
2022-10-22T17:37:45.520Z,15.53
2022-10-22T17:42:46.811Z,15.32
2022-10-22T17:47:49.270Z,15.56
2022-10-22T17:52:50.617Z,15.38
2022-10-22T17:57:53.018Z,15.10
2022-10-22T18:02:54.268Z,15.17
2022-10-22T18:07:55.558Z,15.52
2022-10-22T18:12:56.793Z,15.32
2022-10-22T18:17:58.090Z,15.17
2022-10-22T18:22:59.315Z,15.05
2022-10-22T18:28:00.539Z,15.08
2022-10-22T18:33:01.799Z,15.10
2022-10-22T18:38:03.018Z,15.00
2022-10-22T18:43:04.337Z,14.91
2022-10-22T18:48:05.661Z,14.91
2022-10-22T18:53:06.898Z,14.73
2022-10-22T18:58:08.111Z,14.63
2022-10-22T19:03:10.183Z,14.52
2022-10-22T19:08:15.142Z,14.61
2022-10-22T19:13:16.540Z,14.33
2022-10-22T19:18:17.924Z,14.21
2022-10-22T19:23:26.821Z,14.48
2022-10-22T19:28:28.943Z,14.53
2022-10-22T19:33:30.218Z,14.27
2022-10-22T19:38:31.541Z,14.47
2022-10-22T19:43:32.753Z,14.48
2022-10-22T19:48:34.028Z,13.99
2022-10-22T19:53:35.287Z,13.94
2022-10-22T19:58:36.550Z,14.14
2022-10-22T20:03:37.827Z,14.08
2022-10-22T20:08:39.257Z,13.85
2022-10-22T20:13:40.659Z,13.82
2022-10-22T20:18:42.004Z,13.70
2022-10-22T20:23:43.331Z,13.68
2022-10-22T20:28:44.616Z,13.53
2022-10-22T20:33:45.905Z,13.55
2022-10-22T20:38:48.324Z,13.45
2022-10-22T20:43:49.743Z,13.39
2022-10-22T20:48:50.987Z,13.45
2022-10-22T20:53:52.203Z,13.42
2022-10-22T20:59:04.052Z,13.25
2022-10-22T21:04:05.384Z,13.11
2022-10-22T21:09:06.767Z,13.14
2022-10-22T21:14:08.159Z,13.15
2022-10-22T21:19:09.397Z,13.11
2022-10-22T21:24:10.670Z,12.93
2022-10-22T21:29:11.915Z,13.20
2022-10-22T21:34:13.572Z,13.15
2022-10-22T21:39:14.978Z,13.06
2022-10-22T21:44:16.238Z,13.01
2022-10-22T21:49:19.407Z,13.19
2022-10-22T21:54:20.619Z,13.14
2022-10-22T21:59:21.976Z,13.23
2022-10-22T22:04:23.186Z,13.23
2022-10-22T22:09:24.412Z,13.11
2022-10-22T22:14:25.696Z,13.32
2022-10-22T22:19:26.980Z,13.32
2022-10-22T22:24:31.302Z,13.27
2022-10-22T22:29:32.596Z,13.38
2022-10-22T22:34:33.834Z,13.54
2022-10-22T22:39:35.272Z,13.75
2022-10-22T22:44:36.481Z,13.75
2022-10-22T22:49:37.729Z,13.77
2022-10-22T22:54:39.074Z,13.89
2022-10-22T22:59:40.279Z,13.62
2022-10-22T23:04:41.503Z,13.79
2022-10-22T23:09:42.756Z,13.73
2022-10-22T23:14:44.003Z,13.78
2022-10-22T23:19:45.209Z,13.68
2022-10-22T23:24:46.583Z,13.84
2022-10-22T23:29:47.951Z,13.74
2022-10-22T23:34:49.308Z,13.87
2022-10-22T23:39:50.769Z,13.65
2022-10-22T23:44:52.012Z,13.73
2022-10-22T23:49:53.250Z,13.65
2022-10-22T23:54:54.459Z,13.61
2022-10-22T23:59:55.894Z,13.76
